Time;durP1;ratioP1;P1;durP2;ratioP2;P2;SDS_P1;SDS_P2;PMS_P1;PMS_P2;Temp;Humidity;BMP_temperature;BMP_pressure;BME280_temperature;BME280_humidity;BME280_pressure;Samples;Min_cycle;Max_cycle;Signal;HPM_P1;HPM_P2
2023/08/25 00:00:19;;;;;;;2.00;1.90;;;;;;;;;;5065515;28;20672;-64
2023/08/25 00:02:45;;;;;;;3.58;3.28;;;;;;;;;;5063864;28;20149;-64
2023/08/25 00:05:11;;;;;;;2.65;2.45;;;;;;;;;;5065116;28;20055;-64
2023/08/25 00:07:37;;;;;;;1.88;1.77;;;;;;;;;;5066020;28;20109;-64
2023/08/25 00:10:04;;;;;;;2.10;2.00;;;;;;;;;;5064903;28;20537;-64
2023/08/25 00:12:29;;;;;;;2.08;1.95;;;;;;;;;;5065863;28;20044;-64
2023/08/25 00:14:55;;;;;;;1.90;1.80;;;;;;;;;;5066457;28;20736;-64
2023/08/25 00:17:21;;;;;;;1.98;1.88;;;;;;;;;;5065630;28;20139;-64
2023/08/25 00:19:47;;;;;;;2.00;1.90;;;;;;;;;;5065939;28;20045;-64
2023/08/25 00:22:14;;;;;;;2.40;2.22;;;;;;;;;;5064740;28;20108;-64
2023/08/25 00:24:40;;;;;;;2.30;2.20;;;;;;;;;;5064871;28;20754;-64
2023/08/25 00:27:06;;;;;;;2.28;2.15;;;;;;;;;;5065635;28;20044;-64
2023/08/25 00:29:32;;;;;;;1.98;1.88;;;;;;;;;;5064466;28;20484;-64
2023/08/25 00:31:58;;;;;;;2.30;2.20;;;;;;;;;;5064225;28;20082;-64
2023/08/25 00:34:24;;;;;;;2.38;2.25;;;;;;;;;;5065056;28;20097;-64
2023/08/25 00:36:50;;;;;;;3.85;3.65;;;;;;;;;;5065266;28;20036;-64
2023/08/25 00:39:16;;;;;;;3.17;2.97;;;;;;;;;;5063304;28;20174;-64
2023/08/25 00:41:42;;;;;;;3.00;2.75;;;;;;;;;;5064716;28;20033;-64
2023/08/25 00:44:09;;;;;;;2.00;1.90;;;;;;;;;;5064934;28;20101;-64
2023/08/25 00:46:35;;;;;;;1.83;1.73;;;;;;;;;;5064234;28;20193;-64
2023/08/25 00:49:02;;;;;;;1.77;1.67;;;;;;;;;;5064081;28;20520;-64
2023/08/25 00:51:29;;;;;;;1.65;1.55;;;;;;;;;;5064281;28;20056;-64
2023/08/25 00:53:55;;;;;;;2.38;2.17;;;;;;;;;;5063920;28;20051;-64
2023/08/25 00:56:21;;;;;;;4.25;3.95;;;;;;;;;;5063711;28;20063;-64
2023/08/25 00:58:47;;;;;;;3.17;2.97;;;;;;;;;;5064287;28;20709;-64
2023/08/25 01:01:13;;;;;;;3.42;3.13;;;;;;;;;;5063382;28;20040;-64
2023/08/25 01:03:40;;;;;;;2.67;2.47;;;;;;;;;;5064641;28;20036;-64
2023/08/25 01:06:08;;;;;;;4.90;4.50;;;;;;;;;;5064181;28;20044;-64
2023/08/25 01:08:34;;;;;;;6.10;5.60;;;;;;;;;;5064096;28;20055;-64
2023/08/25 01:11:19;;;;;;;5.18;4.78;;;;;;;;;;5064340;28;20044;-64
2023/08/25 01:13:53;;;;;;;3.83;3.53;;;;;;;;;;5062218;28;20048;-64
2023/08/25 01:16:22;;;;;;;4.32;3.92;;;;;;;;;;5064088;28;20036;-64
2023/08/25 01:18:48;;;;;;;4.30;4.00;;;;;;;;;;5064017;28;20041;-64
2023/08/25 01:21:15;;;;;;;9.52;8.63;;;;;;;;;;5054620;28;20502;-63
2023/08/25 01:24:08;;;;;;;6.38;5.78;;;;;;;;;;5064510;28;20133;-63
2023/08/25 01:26:34;;;;;;;4.45;4.15;;;;;;;;;;5057976;28;20076;-63
2023/08/25 01:29:00;;;;;;;6.40;5.80;;;;;;;;;;5063633;28;20594;-63
2023/08/25 01:31:26;;;;;;;5.05;4.65;;;;;;;;;;5063917;28;20072;-63
2023/08/25 01:33:53;;;;;;;4.40;4.00;;;;;;;;;;5063948;28;20075;-64
2023/08/25 01:36:38;;;;;;;4.47;4.07;;;;;;;;;;5063415;28;20067;-64
2023/08/25 01:39:12;;;;;;;4.32;3.47;;;;;;;;;;5063497;28;20048;-64
2023/08/25 01:41:50;;;;;;;4.35;3.83;;;;;;;;;;5055986;28;20033;-64
2023/08/25 01:44:19;;;;;;;3.17;2.95;;;;;;;;;;5063296;28;20036;-64
2023/08/25 01:46:47;;;;;;;2.60;2.40;;;;;;;;;;5064176;28;20109;-64
2023/08/25 01:49:14;;;;;;;3.00;2.75;;;;;;;;;;5063017;28;20052;-64
2023/08/25 01:51:40;;;;;;;2.55;2.35;;;;;;;;;;5064241;28;21338;-64
2023/08/25 01:54:06;;;;;;;2.85;2.65;;;;;;;;;;5063972;28;20386;-63
2023/08/25 01:56:32;;;;;;;2.53;2.33;;;;;;;;;;5062992;28;20048;-63
2023/08/25 01:58:58;;;;;;;1.98;1.88;;;;;;;;;;5063699;28;20028;-63
2023/08/25 02:01:26;;;;;;;2.05;1.95;;;;;;;;;;5063478;28;20435;-64
2023/08/25 02:03:52;;;;;;;2.00;1.90;;;;;;;;;;5063408;28;20059;-64
2023/08/25 02:06:19;;;;;;;1.70;1.60;;;;;;;;;;5063635;28;20043;-64
2023/08/25 02:08:45;;;;;;;3.00;2.72;;;;;;;;;;5063646;28;20432;-64
2023/08/25 02:11:11;;;;;;;1.98;1.88;;;;;;;;;;5062766;28;20056;-63
2023/08/25 02:13:37;;;;;;;2.15;2.05;;;;;;;;;;5064074;28;20035;-64
2023/08/25 02:16:03;;;;;;;2.78;2.58;;;;;;;;;;5063750;28;20440;-64
2023/08/25 02:18:29;;;;;;;1.90;1.80;;;;;;;;;;5062648;28;20048;-64
2023/08/25 02:20:56;;;;;;;3.35;3.05;;;;;;;;;;5061833;28;20047;-64
2023/08/25 02:23:22;;;;;;;2.33;2.13;;;;;;;;;;5061554;28;20063;-64
2023/08/25 02:25:48;;;;;;;3.10;2.90;;;;;;;;;;5063792;28;20071;-64
2023/08/25 02:28:14;;;;;;;1.85;1.75;;;;;;;;;;5063219;28;20098;-64
2023/08/25 02:30:40;;;;;;;2.80;2.60;;;;;;;;;;5063305;28;20048;-64
2023/08/25 02:33:06;;;;;;;2.80;2.60;;;;;;;;;;5066110;28;20093;-64
2023/08/25 02:35:33;;;;;;;3.67;3.33;;;;;;;;;;5067164;28;20046;-64
2023/08/25 02:38:11;;;;;;;4.03;3.72;;;;;;;;;;5066408;28;20041;-64
2023/08/25 02:40:38;;;;;;;3.75;3.45;;;;;;;;;;5059608;28;20476;-64
2023/08/25 02:43:04;;;;;;;2.30;2.10;;;;;;;;;;5066647;28;20045;-64
2023/08/25 02:45:30;;;;;;;3.05;2.85;;;;;;;;;;5066300;28;20545;-64
2023/08/25 02:47:56;;;;;;;3.67;3.38;;;;;;;;;;5066570;28;20047;-64
2023/08/25 02:50:24;;;;;;;3.58;3.28;;;;;;;;;;5066553;28;20040;-64
2023/08/25 02:52:50;;;;;;;4.30;4.00;;;;;;;;;;5066107;28;20040;-64
2023/08/25 02:55:19;;;;;;;4.32;3.92;;;;;;;;;;5066771;28;20056;-64
2023/08/25 02:57:45;;;;;;;3.20;3.00;;;;;;;;;;5067162;28;20508;-64
2023/08/25 03:00:16;;;;;;;4.20;3.90;;;;;;;;;;5064373;28;20059;-63
2023/08/25 03:02:42;;;;;;;4.25;3.85;;;;;;;;;;5066657;28;20040;-63
2023/08/25 03:05:08;;;;;;;5.20;4.70;;;;;;;;;;5066855;28;20037;-64
2023/08/25 03:07:34;;;;;;;4.07;3.78;;;;;;;;;;5065460;28;20551;-64
2023/08/25 03:10:00;;;;;;;5.25;4.75;;;;;;;;;;5066365;28;20044;-64
2023/08/25 03:12:27;;;;;;;3.60;3.30;;;;;;;;;;5066216;28;20040;-64
2023/08/25 03:14:53;;;;;;;2.67;2.47;;;;;;;;;;5065222;28;20512;-63
2023/08/25 03:17:19;;;;;;;2.17;2.05;;;;;;;;;;5065934;28;20089;-64
2023/08/25 03:19:45;;;;;;;1.95;1.85;;;;;;;;;;5065411;28;20036;-64
2023/08/25 03:22:12;;;;;;;1.75;1.65;;;;;;;;;;5065580;28;20496;-64
2023/08/25 03:24:38;;;;;;;2.35;2.25;;;;;;;;;;5066492;28;20036;-64
2023/08/25 03:27:04;;;;;;;3.10;2.90;;;;;;;;;;5065133;28;20080;-64
2023/08/25 03:29:31;;;;;;;1.95;1.85;;;;;;;;;;5065805;28;20041;-64
2023/08/25 03:31:58;;;;;;;2.22;1.73;;;;;;;;;;5065932;28;20097;-64
2023/08/25 03:34:24;;;;;;;1.70;1.60;;;;;;;;;;5064757;28;20485;-63
2023/08/25 03:36:50;;;;;;;1.25;1.15;;;;;;;;;;5065856;28;20072;-64
2023/08/25 03:39:16;;;;;;;1.20;1.10;;;;;;;;;;5065681;28;20068;-64
2023/08/25 03:41:42;;;;;;;1.50;1.40;;;;;;;;;;5065429;28;20028;-64
2023/08/25 03:44:08;;;;;;;1.42;1.33;;;;;;;;;;5065451;28;20688;-64
2023/08/25 03:46:34;;;;;;;2.80;1.58;;;;;;;;;;5065308;28;20485;-64
2023/08/25 03:49:00;;;;;;;2.65;2.45;;;;;;;;;;5064762;28;20065;-63
2023/08/25 03:51:26;;;;;;;2.83;2.63;;;;;;;;;;5065435;28;20044;-63
2023/08/25 03:53:52;;;;;;;2.00;1.90;;;;;;;;;;5065671;28;20029;-63
2023/08/25 03:56:18;;;;;;;2.10;2.00;;;;;;;;;;5064743;28;20151;-64
2023/08/25 03:58:45;;;;;;;2.25;2.15;;;;;;;;;;5065127;28;20154;-64
2023/08/25 04:01:11;;;;;;;2.20;2.10;;;;;;;;;;5064984;28;20090;-64
2023/08/25 04:03:37;;;;;;;2.40;2.20;;;;;;;;;;5064823;28;20106;-64
2023/08/25 04:06:03;;;;;;;2.50;2.30;;;;;;;;;;5064939;28;20754;-64
2023/08/25 04:08:29;;;;;;;5.05;4.57;;;;;;;;;;5065045;28;20066;-64
2023/08/25 04:10:55;;;;;;;3.70;3.25;;;;;;;;;;5064455;28;20048;-64
2023/08/25 04:13:21;;;;;;;2.58;2.38;;;;;;;;;;5064682;28;20047;-64
2023/08/25 04:15:56;;;;;;;4.00;3.70;;;;;;;;;;5064760;28;20071;-64
2023/08/25 04:18:22;;;;;;;2.40;2.20;;;;;;;;;;5064494;28;20059;-64
2023/08/25 04:20:48;;;;;;;1.83;1.73;;;;;;;;;;5063374;28;20496;-64
2023/08/25 04:23:14;;;;;;;1.80;1.70;;;;;;;;;;5063985;28;20043;-64
2023/08/25 04:25:40;;;;;;;1.95;1.83;;;;;;;;;;5065562;28;20037;-64
2023/08/25 04:28:06;;;;;;;1.77;1.67;;;;;;;;;;5065022;28;20531;-64
2023/08/25 04:30:32;;;;;;;1.83;1.73;;;;;;;;;;5064330;28;20070;-64
2023/08/25 04:32:58;;;;;;;2.40;2.20;;;;;;;;;;5064846;28;20043;-64
2023/08/25 04:35:24;;;;;;;4.95;2.90;;;;;;;;;;5064696;28;20044;-64
2023/08/25 04:37:50;;;;;;;2.10;1.90;;;;;;;;;;5064310;28;20481;-64
2023/08/25 04:40:20;;;;;;;1.42;1.33;;;;;;;;;;5064418;28;20056;-63
2023/08/25 04:42:46;;;;;;;1.60;1.50;;;;;;;;;;5064685;28;20056;-64
2023/08/25 04:45:13;;;;;;;1.40;1.30;;;;;;;;;;5063707;28;20224;-64
2023/08/25 04:47:39;;;;;;;2.00;1.90;;;;;;;;;;5064608;28;20497;-64
2023/08/25 04:50:07;;;;;;;1.40;1.30;;;;;;;;;;5064277;28;20052;-64
2023/08/25 04:52:34;;;;;;;0.90;0.90;;;;;;;;;;5063679;28;20489;-64
2023/08/25 04:55:00;;;;;;;0.85;0.85;;;;;;;;;;5063363;28;20068;-64
2023/08/25 04:57:26;;;;;;;0.80;0.80;;;;;;;;;;5064301;28;20044;-64
2023/08/25 04:59:52;;;;;;;0.82;0.82;;;;;;;;;;5055474;28;20033;-64
2023/08/25 05:02:18;;;;;;;1.13;1.02;;;;;;;;;;5064514;28;20675;-64
2023/08/25 05:04:44;;;;;;;1.02;0.95;;;;;;;;;;5064285;28;20051;-64
2023/08/25 05:07:10;;;;;;;0.55;0.52;;;;;;;;;;5064114;28;20048;-64
2023/08/25 05:09:37;;;;;;;2.55;2.35;;;;;;;;;;5064068;28;20438;-64
2023/08/25 05:12:03;;;;;;;2.15;2.03;;;;;;;;;;5063897;28;20123;-64
2023/08/25 05:14:29;;;;;;;1.52;1.42;;;;;;;;;;5064079;28;20043;-64
2023/08/25 05:16:55;;;;;;;0.88;0.85;;;;;;;;;;5064214;28;20063;-64
2023/08/25 05:19:21;;;;;;;1.75;1.65;;;;;;;;;;5063523;28;20032;-64
2023/08/25 05:21:47;;;;;;;1.60;1.50;;;;;;;;;;5064091;28;20040;-64
2023/08/25 05:24:20;;;;;;;1.25;1.15;;;;;;;;;;5063712;28;20122;-64
2023/08/25 05:26:47;;;;;;;2.78;2.58;;;;;;;;;;5063247;28;20179;-64
2023/08/25 05:29:14;;;;;;;1.80;1.70;;;;;;;;;;5063695;28;20052;-64
2023/08/25 05:31:41;;;;;;;1.65;1.55;;;;;;;;;;5064597;28;20039;-64
2023/08/25 05:34:07;;;;;;;2.15;2.03;;;;;;;;;;5063783;28;20079;-64
2023/08/25 05:36:34;;;;;;;1.88;1.77;;;;;;;;;;5063788;28;20040;-64
2023/08/25 05:39:00;;;;;;;2.00;1.90;;;;;;;;;;5063617;28;20496;-64
2023/08/25 05:41:26;;;;;;;3.65;3.35;;;;;;;;;;5063526;28;20036;-64
2023/08/25 05:43:52;;;;;;;3.35;3.05;;;;;;;;;;5063739;28;20068;-63
2023/08/25 05:46:18;;;;;;;2.00;1.90;;;;;;;;;;5063757;28;20039;-63
2023/08/25 05:48:44;;;;;;;1.73;1.63;;;;;;;;;;5063164;28;20040;-63
2023/08/25 05:51:10;;;;;;;1.50;1.40;;;;;;;;;;5064095;28;20044;-63
2023/08/25 05:53:36;;;;;;;1.98;1.60;;;;;;;;;;5063991;28;20126;-63
2023/08/25 05:56:02;;;;;;;3.47;3.17;;;;;;;;;;5062435;28;20052;-63
2023/08/25 05:58:28;;;;;;;2.67;2.47;;;;;;;;;;5063461;28;20086;-63
2023/08/25 06:00:56;;;;;;;2.60;2.10;;;;;;;;;;5063861;28;20567;-63
2023/08/25 06:03:22;;;;;;;1.52;1.42;;;;;;;;;;5062850;28;20044;-63
2023/08/25 06:05:53;;;;;;;1.70;1.60;;;;;;;;;;5063179;28;20040;-63
2023/08/25 06:08:20;;;;;;;1.33;1.23;;;;;;;;;;5067037;28;20388;-63
2023/08/25 06:10:46;;;;;;;1.20;1.10;;;;;;;;;;5067363;28;20752;-63
2023/08/25 06:13:12;;;;;;;0.80;0.80;;;;;;;;;;5067528;28;20401;-63
2023/08/25 06:15:38;;;;;;;1.52;1.40;;;;;;;;;;5067294;28;20115;-63
2023/08/25 06:18:05;;;;;;;0.88;0.88;;;;;;;;;;5067149;28;20078;-63
2023/08/25 06:20:31;;;;;;;0.90;0.80;;;;;;;;;;5067352;28;20036;-63
2023/08/25 06:22:57;;;;;;;1.20;1.10;;;;;;;;;;5066852;28;20033;-63
2023/08/25 06:25:23;;;;;;;1.13;1.02;;;;;;;;;;5067377;28;20743;-63
2023/08/25 06:27:49;;;;;;;0.60;0.60;;;;;;;;;;5067633;28;20047;-64
2023/08/25 06:30:18;;;;;;;1.10;1.00;;;;;;;;;;5066354;28;20052;-64
2023/08/25 06:32:44;;;;;;;4.45;3.58;;;;;;;;;;5066912;28;20056;-64
2023/08/25 06:35:12;;;;;;;2.95;2.13;;;;;;;;;;5067138;28;20036;-64
2023/08/25 06:37:38;;;;;;;2.50;2.30;;;;;;;;;;5067036;28;20165;-64
2023/08/25 06:40:05;;;;;;;1.92;1.40;;;;;;;;;;5066490;28;20052;-63
2023/08/25 06:42:31;;;;;;;1.23;1.13;;;;;;;;;;5067045;28;20496;-63
2023/08/25 06:44:57;;;;;;;1.60;1.50;;;;;;;;;;5066628;28;20044;-64
2023/08/25 06:47:25;;;;;;;1.25;1.15;;;;;;;;;;5066240;28;20587;-64
2023/08/25 06:49:51;;;;;;;1.13;1.02;;;;;;;;;;5066817;28;20091;-64
2023/08/25 06:52:17;;;;;;;1.17;1.08;;;;;;;;;;5065872;28;20072;-64
2023/08/25 06:54:43;;;;;;;1.25;1.15;;;;;;;;;;5066492;28;20131;-64
2023/08/25 06:57:09;;;;;;;1.70;1.60;;;;;;;;;;5066560;28;20581;-64
2023/08/25 06:59:35;;;;;;;1.33;1.23;;;;;;;;;;5065710;28;20417;-64
2023/08/25 07:02:02;;;;;;;1.98;1.80;;;;;;;;;;5066316;28;20109;-64
2023/08/25 07:04:28;;;;;;;1.23;1.13;;;;;;;;;;5065144;28;20059;-64
2023/08/25 07:06:54;;;;;;;1.80;1.30;;;;;;;;;;5065837;28;20135;-64
2023/08/25 07:09:20;;;;;;;0.90;0.90;;;;;;;;;;5066097;28;20119;-64
2023/08/25 07:11:46;;;;;;;0.70;0.70;;;;;;;;;;5065728;28;20036;-64
2023/08/25 07:14:13;;;;;;;1.25;1.23;;;;;;;;;;5066845;28;20039;-64
2023/08/25 07:16:39;;;;;;;1.48;1.38;;;;;;;;;;5066683;28;20032;-64
2023/08/25 07:19:05;;;;;;;2.85;1.40;;;;;;;;;;5064425;28;20036;-64
2023/08/25 07:21:31;;;;;;;1.17;1.17;;;;;;;;;;5066104;28;20111;-64
2023/08/25 07:23:57;;;;;;;1.40;1.30;;;;;;;;;;5064336;28;20036;-64
2023/08/25 07:26:25;;;;;;;1.27;1.20;;;;;;;;;;5064921;28;20032;-64
2023/08/25 07:28:51;;;;;;;1.00;0.90;;;;;;;;;;5065872;28;20044;-64
2023/08/25 07:31:17;;;;;;;1.10;1.00;;;;;;;;;;5065593;28;20048;-64
2023/08/25 07:33:43;;;;;;;1.10;1.10;;;;;;;;;;5064990;28;20048;-64
2023/08/25 07:36:09;;;;;;;1.15;1.00;;;;;;;;;;5065773;28;20119;-64
2023/08/25 07:38:36;;;;;;;0.75;0.75;;;;;;;;;;5066157;28;20124;-64
2023/08/25 07:41:02;;;;;;;1.02;1.02;;;;;;;;;;5065252;28;20448;-64
2023/08/25 07:43:28;;;;;;;0.70;0.70;;;;;;;;;;5065755;28;20056;-64
2023/08/25 07:45:54;;;;;;;0.60;0.60;;;;;;;;;;5065589;28;20428;-64
2023/08/25 07:48:21;;;;;;;1.15;0.80;;;;;;;;;;5064875;28;20461;-64
2023/08/25 07:50:47;;;;;;;1.80;1.17;;;;;;;;;;5065128;28;20043;-64
2023/08/25 07:53:14;;;;;;;1.40;1.30;;;;;;;;;;5065268;28;20067;-64
2023/08/25 07:55:40;;;;;;;1.20;1.10;;;;;;;;;;5064867;28;20475;-64
2023/08/25 07:58:09;;;;;;;0.65;0.65;;;;;;;;;;5065180;28;20087;-64
2023/08/25 08:00:37;;;;;;;0.63;0.63;;;;;;;;;;5063571;28;20044;-64
2023/08/25 08:03:04;;;;;;;1.25;0.85;;;;;;;;;;5064583;28;20899;-64
2023/08/25 08:05:30;;;;;;;0.70;0.70;;;;;;;;;;5065500;28;20040;-64
2023/08/25 08:07:58;;;;;;;0.60;0.60;;;;;;;;;;5065095;28;20554;-64
2023/08/25 08:10:24;;;;;;;1.08;0.98;;;;;;;;;;5064879;28;20054;-64
2023/08/25 08:12:50;;;;;;;0.77;0.77;;;;;;;;;;5065027;28;20044;-64
2023/08/25 08:15:16;;;;;;;0.50;0.50;;;;;;;;;;5064174;28;20787;-64
2023/08/25 08:17:43;;;;;;;0.47;0.47;;;;;;;;;;5065110;28;20047;-64
2023/08/25 08:20:12;;;;;;;0.70;0.70;;;;;;;;;;5064950;28;20032;-64
2023/08/25 08:22:39;;;;;;;0.68;0.68;;;;;;;;;;5064687;28;20417;-64
2023/08/25 08:25:06;;;;;;;0.57;0.57;;;;;;;;;;5063025;28;20080;-64
2023/08/25 08:27:32;;;;;;;0.70;0.70;;;;;;;;;;5064986;28;20119;-64
2023/08/25 08:29:58;;;;;;;1.08;1.02;;;;;;;;;;5064135;28;20036;-64
2023/08/25 08:32:24;;;;;;;0.65;0.65;;;;;;;;;;5064604;28;20549;-64
2023/08/25 08:34:50;;;;;;;1.45;1.15;;;;;;;;;;5064789;28;20610;-64
2023/08/25 08:37:16;;;;;;;0.85;0.85;;;;;;;;;;5064184;28;20044;-64
2023/08/25 08:39:44;;;;;;;0.82;0.52;;;;;;;;;;5064958;28;20071;-64
2023/08/25 08:42:13;;;;;;;1.27;1.17;;;;;;;;;;5064558;28;20048;-64
2023/08/25 08:44:41;;;;;;;0.65;0.65;;;;;;;;;;5062773;28;20072;-64
2023/08/25 08:47:09;;;;;;;0.60;0.60;;;;;;;;;;5063950;28;20127;-64
2023/08/25 08:49:36;;;;;;;0.77;0.60;;;;;;;;;;5064443;28;20054;-64
2023/08/25 08:52:05;;;;;;;1.20;0.98;;;;;;;;;;5063568;28;20403;-64
2023/08/25 08:54:32;;;;;;;0.70;0.70;;;;;;;;;;5064295;28;20446;-64
2023/08/25 08:56:59;;;;;;;1.20;1.10;;;;;;;;;;5064578;28;20032;-64
2023/08/25 08:59:25;;;;;;;0.93;0.93;;;;;;;;;;5063821;28;20083;-64
2023/08/25 09:01:53;;;;;;;1.77;1.67;;;;;;;;;;5064671;28;20072;-64
2023/08/25 09:04:23;;;;;;;0.80;0.80;;;;;;;;;;5063572;28;20041;-64
2023/08/25 09:06:51;;;;;;;0.70;0.70;;;;;;;;;;5064713;28;20381;-64
2023/08/25 09:09:19;;;;;;;1.15;0.80;;;;;;;;;;5064037;28;20647;-64
2023/08/25 09:11:46;;;;;;;0.98;0.98;;;;;;;;;;5063540;28;20040;-64
2023/08/25 09:14:13;;;;;;;1.30;1.20;;;;;;;;;;5064425;28;20043;-64
2023/08/25 09:16:39;;;;;;;0.75;0.75;;;;;;;;;;5064964;28;20056;-64
2023/08/25 09:19:05;;;;;;;1.20;0.98;;;;;;;;;;5063466;28;20076;-64
2023/08/25 09:21:32;;;;;;;1.40;1.30;;;;;;;;;;5064267;28;20040;-64
2023/08/25 09:23:59;;;;;;;3.72;3.42;;;;;;;;;;5064442;28;20082;-64
2023/08/25 09:26:26;;;;;;;2.80;2.60;;;;;;;;;;5063292;28;20029;-64
2023/08/25 09:28:53;;;;;;;2.40;2.20;;;;;;;;;;5063931;28;20040;-64
2023/08/25 09:31:23;;;;;;;1.80;1.70;;;;;;;;;;5063743;28;20063;-64
2023/08/25 09:33:50;;;;;;;0.90;0.90;;;;;;;;;;5063047;28;20063;-64
2023/08/25 09:36:16;;;;;;;1.10;1.10;;;;;;;;;;5063479;28;20452;-64
2023/08/25 09:38:46;;;;;;;1.80;1.70;;;;;;;;;;5064222;28;20044;-64
2023/08/25 09:41:12;;;;;;;2.17;1.75;;;;;;;;;;5064248;28;20044;-64
2023/08/25 09:43:39;;;;;;;1.40;1.30;;;;;;;;;;5068762;28;20036;-64
2023/08/25 09:46:09;;;;;;;2.35;2.25;;;;;;;;;;5067878;28;20046;-64
2023/08/25 09:48:36;;;;;;;1.85;1.75;;;;;;;;;;5067252;28;20040;-64
2023/08/25 09:51:03;;;;;;;2.33;2.13;;;;;;;;;;5067832;28;20044;-64
2023/08/25 09:53:33;;;;;;;2.28;2.08;;;;;;;;;;5067507;28;20412;-64
2023/08/25 09:56:04;;;;;;;2.42;2.20;;;;;;;;;;5067970;28;20153;-64
2023/08/25 09:58:30;;;;;;;;;;;;;;;;;;5068373;28;20047;-64
2023/08/25 10:00:58;;;;;;;2.03;1.67;;;;;;;;;;5067589;28;19920;-64
2023/08/25 10:03:24;;;;;;;1.77;1.67;;;;;;;;;;5067772;28;20048;-64
2023/08/25 10:05:50;;;;;;;1.80;1.70;;;;;;;;;;5067676;28;20049;-64
2023/08/25 10:08:17;;;;;;;1.67;1.58;;;;;;;;;;5066599;28;20047;-64
2023/08/25 10:10:45;;;;;;;2.80;2.60;;;;;;;;;;5068064;28;20040;-64
2023/08/25 10:13:14;;;;;;;2.33;2.22;;;;;;;;;;5067840;28;20045;-64
2023/08/25 10:15:41;;;;;;;2.40;2.20;;;;;;;;;;5067664;28;20076;-64
2023/08/25 10:18:08;;;;;;;2.08;1.90;;;;;;;;;;5067519;28;20047;-64
2023/08/25 10:20:35;;;;;;;1.75;1.65;;;;;;;;;;5067264;28;20584;-64
2023/08/25 10:23:04;;;;;;;2.55;2.35;;;;;;;;;;5066232;28;20041;-64
2023/08/25 10:25:31;;;;;;;2.78;2.58;;;;;;;;;;5067273;28;20032;-64
2023/08/25 10:27:58;;;;;;;2.83;2.63;;;;;;;;;;5067116;28;20040;-64
2023/08/25 10:30:24;;;;;;;2.70;2.50;;;;;;;;;;5066318;28;20040;-64
2023/08/25 10:33:19;;;;;;;2.13;2.00;;;;;;;;;;5066862;28;20048;-64
2023/08/25 10:35:47;;;;;;;2.25;2.05;;;;;;;;;;5060091;28;20149;-64
2023/08/25 10:38:19;;;;;;;1.40;1.30;;;;;;;;;;5067435;28;20480;-64
2023/08/25 10:40:45;;;;;;;;;;;;;;;;;;5067828;28;20115;-64
2023/08/25 10:43:11;;;;;;;0.88;0.88;;;;;;;;;;5066911;28;19920;-64
2023/08/25 10:45:37;;;;;;;1.40;1.30;;;;;;;;;;5067347;28;20037;-64
2023/08/25 10:48:03;;;;;;;1.35;1.25;;;;;;;;;;5066692;28;20738;-64
2023/08/25 10:50:30;;;;;;;1.17;1.00;;;;;;;;;;5066461;28;20695;-64
2023/08/25 10:52:56;;;;;;;2.22;1.00;;;;;;;;;;5065548;28;20595;-64
2023/08/25 10:55:26;;;;;;;1.73;1.55;;;;;;;;;;5066687;28;20056;-64
2023/08/25 10:57:53;;;;;;;1.60;1.50;;;;;;;;;;5058693;28;20041;-64
2023/08/25 11:00:25;;;;;;;2.20;1.52;;;;;;;;;;5066369;28;20466;-64
2023/08/25 11:02:51;;;;;;;1.30;1.17;;;;;;;;;;5066594;28;20040;-64
2023/08/25 11:05:28;;;;;;;1.30;1.20;;;;;;;;;;5065723;28;20054;-64
2023/08/25 11:07:54;;;;;;;1.00;1.00;;;;;;;;;;5066204;28;20047;-64
2023/08/25 11:10:24;;;;;;;1.00;0.90;;;;;;;;;;5066032;28;20049;-64
2023/08/25 11:12:54;;;;;;;1.85;1.30;;;;;;;;;;5065584;28;20613;-64
2023/08/25 11:15:23;;;;;;;1.63;1.23;;;;;;;;;;5066236;28;20021;-64
2023/08/25 11:17:50;;;;;;;1.55;1.45;;;;;;;;;;5065731;28;20047;-64
2023/08/25 11:20:16;;;;;;;1.30;1.20;;;;;;;;;;5065798;28;20029;-64
2023/08/25 11:22:55;;;;;;;1.60;1.50;;;;;;;;;;5066653;28;20366;-64
2023/08/25 11:25:21;;;;;;;1.25;1.15;;;;;;;;;;5057496;28;20036;-64
2023/08/25 11:27:51;;;;;;;0.80;0.80;;;;;;;;;;5066047;28;20415;-64
2023/08/25 11:30:17;;;;;;;1.38;1.27;;;;;;;;;;5065664;28;20052;-64
2023/08/25 11:32:52;;;;;;;1.13;1.02;;;;;;;;;;5065929;28;20043;-64
2023/08/25 11:35:18;;;;;;;1.55;1.45;;;;;;;;;;5066058;28;20041;-64
2023/08/25 11:37:44;;;;;;;1.50;1.40;;;;;;;;;;5066008;28;20081;-64
2023/08/25 11:40:14;;;;;;;1.70;1.60;;;;;;;;;;5065298;28;20037;-64
2023/08/25 11:42:41;;;;;;;2.30;2.00;;;;;;;;;;5066531;28;20044;-64
2023/08/25 11:45:08;;;;;;;2.60;2.00;;;;;;;;;;5065534;28;20045;-64
2023/08/25 11:47:34;;;;;;;2.88;2.67;;;;;;;;;;5064863;28;20114;-64
2023/08/25 11:50:04;;;;;;;3.30;3.00;;;;;;;;;;5065514;28;20074;-64
2023/08/25 11:52:31;;;;;;;3.88;3.58;;;;;;;;;;5065257;28;20078;-64
2023/08/25 11:54:57;;;;;;;2.80;2.60;;;;;;;;;;5064538;28;20128;-64
2023/08/25 11:57:33;;;;;;;2.33;2.22;;;;;;;;;;5064815;28;20700;-64
2023/08/25 12:00:01;;;;;;;3.00;2.60;;;;;;;;;;5058186;28;20040;-64
2023/08/25 12:02:27;;;;;;;2.15;2.05;;;;;;;;;;5065401;28;20044;-64
2023/08/25 12:04:54;;;;;;;2.83;2.22;;;;;;;;;;5064584;28;20040;-64
2023/08/25 12:07:27;;;;;;;1.65;1.55;;;;;;;;;;5064600;28;20044;-64
2023/08/25 12:09:57;;;;;;;2.47;2.28;;;;;;;;;;5065205;28;20066;-64
2023/08/25 12:12:23;;;;;;;4.30;3.90;;;;;;;;;;5064394;28;20041;-64
2023/08/25 12:14:53;;;;;;;3.08;2.88;;;;;;;;;;5064553;28;20462;-64
2023/08/25 12:17:26;;;;;;;3.80;2.58;;;;;;;;;;5064623;28;20044;-64
2023/08/25 12:19:52;;;;;;;2.38;2.20;;;;;;;;;;5065043;28;20845;-64
2023/08/25 12:22:18;;;;;;;2.88;2.30;;;;;;;;;;5064561;28;20036;-64
2023/08/25 12:24:45;;;;;;;3.35;1.98;;;;;;;;;;5065223;28;20040;-64
2023/08/25 12:27:11;;;;;;;1.77;1.67;;;;;;;;;;5065054;28;20049;-64
2023/08/25 12:29:37;;;;;;;1.98;1.88;;;;;;;;;;5064373;28;20115;-64
2023/08/25 12:32:04;;;;;;;2.65;2.45;;;;;;;;;;5064841;28;20043;-64
2023/08/25 12:34:30;;;;;;;1.98;1.88;;;;;;;;;;5065161;28;20028;-64
2023/08/25 12:36:56;;;;;;;2.20;2.10;;;;;;;;;;5064737;28;20032;-64
2023/08/25 12:39:23;;;;;;;3.97;3.55;;;;;;;;;;5064668;28;20137;-64
2023/08/25 12:41:49;;;;;;;4.72;3.65;;;;;;;;;;5064888;28;20039;-64
2023/08/25 12:44:15;;;;;;;3.53;3.25;;;;;;;;;;5063921;28;20652;-64
2023/08/25 12:46:42;;;;;;;3.03;2.83;;;;;;;;;;5065156;28;20033;-64
2023/08/25 12:49:08;;;;;;;3.75;3.08;;;;;;;;;;5064656;28;20130;-64
2023/08/25 12:51:34;;;;;;;4.50;2.90;;;;;;;;;;5064517;28;20047;-64
2023/08/25 12:54:09;;;;;;;5.82;4.15;;;;;;;;;;5065000;28;20549;-65
2023/08/25 12:56:35;;;;;;;4.22;3.55;;;;;;;;;;5062488;28;20056;-64
2023/08/25 12:59:02;;;;;;;5.07;3.20;;;;;;;;;;5064142;28;20040;-64
2023/08/25 13:01:28;;;;;;;4.80;3.53;;;;;;;;;;5064555;28;20040;-64
2023/08/25 13:03:54;;;;;;;4.82;4.20;;;;;;;;;;5055603;28;20045;-64
2023/08/25 13:06:20;;;;;;;6.22;5.07;;;;;;;;;;5064135;28;20048;-64
2023/08/25 13:08:46;;;;;;;5.60;4.55;;;;;;;;;;5064304;28;20044;-64
2023/08/25 13:11:12;;;;;;;3.92;3.53;;;;;;;;;;5063975;28;20550;-64
2023/08/25 13:13:39;;;;;;;3.13;2.92;;;;;;;;;;5064043;28;20037;-64
2023/08/25 13:16:08;;;;;;;3.42;3.03;;;;;;;;;;5063291;28;20411;-64
2023/08/25 13:18:34;;;;;;;4.68;4.28;;;;;;;;;;5063820;28;20579;-64
2023/08/25 13:21:00;;;;;;;4.20;3.40;;;;;;;;;;5063984;28;20040;-64
2023/08/25 13:23:26;;;;;;;3.05;2.85;;;;;;;;;;5064142;28;20040;-64
2023/08/25 13:25:52;;;;;;;3.03;2.72;;;;;;;;;;5063641;28;20036;-64
2023/08/25 13:28:18;;;;;;;2.55;2.42;;;;;;;;;;5063887;28;20485;-64
2023/08/25 13:30:44;;;;;;;3.58;3.28;;;;;;;;;;5064404;28;20120;-64
2023/08/25 13:33:10;;;;;;;5.78;3.72;;;;;;;;;;5063704;28;20067;-65
2023/08/25 13:35:36;;;;;;;3.90;2.67;;;;;;;;;;5062534;28;20037;-65
2023/08/25 13:38:03;;;;;;;3.45;2.63;;;;;;;;;;5063419;28;20444;-65
2023/08/25 13:40:29;;;;;;;2.88;2.22;;;;;;;;;;5063168;28;20037;-65
2023/08/25 13:42:55;;;;;;;2.85;2.65;;;;;;;;;;5063938;28;20040;-65
2023/08/25 13:45:21;;;;;;;2.40;2.20;;;;;;;;;;5063736;28;20044;-65
2023/08/25 13:47:47;;;;;;;3.00;2.80;;;;;;;;;;5063366;28;20040;-65
2023/08/25 13:50:13;;;;;;;2.20;2.00;;;;;;;;;;5064100;28;20123;-65
2023/08/25 13:52:39;;;;;;;4.28;3.60;;;;;;;;;;5063102;28;20511;-65
2023/08/25 13:55:06;;;;;;;4.70;4.30;;;;;;;;;;5063522;28;20079;-65
2023/08/25 13:57:32;;;;;;;3.40;3.20;;;;;;;;;;5063807;28;20044;-65
2023/08/25 13:59:58;;;;;;;2.65;2.45;;;;;;;;;;5063317;28;20036;-65
2023/08/25 14:02:24;;;;;;;2.10;1.90;;;;;;;;;;5063691;28;20098;-65
2023/08/25 14:04:50;;;;;;;2.97;2.63;;;;;;;;;;5063778;28;20040;-65
2023/08/25 14:07:16;;;;;;;4.65;3.85;;;;;;;;;;5062956;28;20044;-64
2023/08/25 14:09:42;;;;;;;4.97;4.47;;;;;;;;;;5063795;28;20724;-64
2023/08/25 14:12:08;;;;;;;4.47;4.07;;;;;;;;;;5062047;28;20044;-64
2023/08/25 14:14:34;;;;;;;2.78;2.58;;;;;;;;;;5063225;28;20092;-64
2023/08/25 14:17:00;;;;;;;3.38;2.92;;;;;;;;;;5063739;28;20048;-64
2023/08/25 14:19:26;;;;;;;1.92;1.83;;;;;;;;;;5063990;28;20126;-64
2023/08/25 14:21:53;;;;;;;2.10;1.90;;;;;;;;;;5062734;28;20110;-64
2023/08/25 14:24:19;;;;;;;3.33;2.22;;;;;;;;;;5063278;28;20454;-64
2023/08/25 14:26:46;;;;;;;1.90;1.80;;;;;;;;;;5063609;28;20476;-64
2023/08/25 14:29:13;;;;;;;2.05;1.95;;;;;;;;;;5066561;28;20390;-64
2023/08/25 14:31:39;;;;;;;1.60;1.50;;;;;;;;;;5067375;28;20044;-64
2023/08/25 14:34:05;;;;;;;1.40;1.30;;;;;;;;;;5067128;28;20056;-64
2023/08/25 14:36:34;;;;;;;2.63;2.15;;;;;;;;;;5066430;28;20036;-64
2023/08/25 14:39:00;;;;;;;2.33;2.20;;;;;;;;;;5066711;28;20071;-64
2023/08/25 14:41:27;;;;;;;2.65;2.45;;;;;;;;;;5066833;28;20041;-65